Hillpoint, Wisconsin
Current Conditions -  °F | °C
As of 3:56 AM on Saturday 29 Nov 2014 (Local Time) from KLNR Reporting Station
Clear Clear  
Wind Chill: 25°   Ceiling: Unl
Heat Index: 33°   Visibility: 7mi
Dew Point: 27°   Wind: 10mph
Humidity: 78%   Direction: 90°E
Pressure: 29.67"   Gusts: NA
Location:  43.39°N, 90.14°W
Report Text: KLNR 290956Z AUTO 09009KT 7SM CLR 01/M03 A2967 RMK AO2 SLP049 T00061028
Loading
Personal Weather Stations






























Interactive Weather Map New forecast layout! Learn more

10-Day Weather Forecast

Advertisements
Track Severe Weather on mobile